createdAt,value
2023-03-17T00:03:18.328Z,401.84
2023-03-17T00:08:25.782Z,402.28
2023-03-17T00:13:33.154Z,402.52
2023-03-17T00:18:40.674Z,402.13
2023-03-17T00:23:57.620Z,403.35
2023-03-17T00:29:05.003Z,403.35
2023-03-17T00:34:12.437Z,403.18
2023-03-17T00:39:23.965Z,403.56
2023-03-17T00:44:40.328Z,403.56
2023-03-17T00:49:47.934Z,403.82
2023-03-17T00:54:55.476Z,404.02
2023-03-17T01:00:03.055Z,404.84
2023-03-17T01:05:13.423Z,405.17
2023-03-17T01:10:20.816Z,405.51
2023-03-17T01:15:28.128Z,406.42
2023-03-17T01:20:35.440Z,407.22
2023-03-17T01:25:42.683Z,407.16
2023-03-17T01:30:49.983Z,407.54
2023-03-17T01:35:57.265Z,408.01
2023-03-17T01:41:04.592Z,408.89
2023-03-17T01:46:11.871Z,408.80
2023-03-17T01:51:19.002Z,409.43
2023-03-17T01:56:26.329Z,409.45
2023-03-17T02:01:33.484Z,410.01
2023-03-17T02:06:54.952Z,410.26
2023-03-17T02:11:47.889Z,410.62
2023-03-17T02:16:55.242Z,411.38
2023-03-17T02:22:02.425Z,411.72
2023-03-17T02:27:09.607Z,411.06
2023-03-17T02:32:16.770Z,410.12
2023-03-17T02:37:24.007Z,411.27
2023-03-17T02:42:31.267Z,411.59
2023-03-17T02:47:38.418Z,412.12
2023-03-17T02:52:45.607Z,412.94
2023-03-17T02:57:52.831Z,412.21
2023-03-17T03:02:59.984Z,412.15
2023-03-17T03:08:07.165Z,412.42
2023-03-17T03:13:14.381Z,412.00
2023-03-17T03:18:21.554Z,411.13
2023-03-17T03:23:28.783Z,410.74
2023-03-17T03:28:35.930Z,409.98
2023-03-17T03:33:43.207Z,409.99
2023-03-17T03:38:50.387Z,409.37
2023-03-17T03:43:57.610Z,408.27
2023-03-17T03:49:04.769Z,407.87
2023-03-17T03:54:11.937Z,407.72
2023-03-17T03:59:19.179Z,407.90
2023-03-17T04:04:26.437Z,407.36
2023-03-17T04:09:33.582Z,406.41
2023-03-17T04:14:40.808Z,405.83
2023-03-17T04:19:48.011Z,404.59
2023-03-17T04:24:55.267Z,404.90
2023-03-17T04:30:02.748Z,404.52
2023-03-17T04:35:10.109Z,404.55
2023-03-17T04:40:17.319Z,403.74
2023-03-17T04:45:24.754Z,404.20
2023-03-17T04:50:32.383Z,403.95
2023-03-17T04:55:39.335Z,403.78
2023-03-17T05:00:46.744Z,403.92
2023-03-17T05:05:53.862Z,404.55
2023-03-17T05:11:01.365Z,404.37
2023-03-17T05:16:08.938Z,404.92
2023-03-17T05:21:16.181Z,404.67
2023-03-17T05:26:23.586Z,404.36
2023-03-17T05:31:31.150Z,404.76
2023-03-17T05:36:38.564Z,404.76
2023-03-17T05:41:45.943Z,404.63
2023-03-17T05:46:53.335Z,404.21
2023-03-17T05:52:03.472Z,405.42
2023-03-17T05:57:09.892Z,405.12
2023-03-17T06:02:17.592Z,405.97
2023-03-17T06:07:24.860Z,405.76
2023-03-17T06:12:32.497Z,405.61
2023-03-17T06:17:39.935Z,405.24
2023-03-17T06:23:02.794Z,404.67
2023-03-17T06:27:55.391Z,404.06
2023-03-17T06:33:17.716Z,403.59
2023-03-17T06:38:42.605Z,403.21
2023-03-17T06:43:48.732Z,403.18
2023-03-17T06:48:56.310Z,402.61
2023-03-17T06:54:03.791Z,402.91
2023-03-17T06:59:11.201Z,402.90
2023-03-17T07:04:18.690Z,403.23
2023-03-17T07:09:26.113Z,403.39
2023-03-17T07:14:33.586Z,403.27
2023-03-17T07:19:41.160Z,403.27
2023-03-17T07:24:51.370Z,403.15
2023-03-17T07:29:58.720Z,404.24
2023-03-17T07:35:06.233Z,404.67
2023-03-17T07:40:13.574Z,405.12
2023-03-17T07:45:20.885Z,405.75
2023-03-17T07:50:28.302Z,405.56
2023-03-17T07:55:35.570Z,405.57
2023-03-17T08:00:42.923Z,404.68
2023-03-17T08:05:50.578Z,404.27
2023-03-17T08:10:58.850Z,403.74
2023-03-17T08:16:11.139Z,403.87
2023-03-17T08:21:18.446Z,404.29
2023-03-17T08:26:25.828Z,404.72
2023-03-17T08:31:33.354Z,404.91
2023-03-17T08:36:40.521Z,405.03
2023-03-17T08:41:47.963Z,405.46
2023-03-17T08:46:55.425Z,405.56
2023-03-17T08:52:02.860Z,405.71
2023-03-17T08:57:10.235Z,405.78
2023-03-17T09:02:17.660Z,406.43
2023-03-17T09:07:24.967Z,407.08
2023-03-17T09:12:34.106Z,406.95
2023-03-17T09:17:39.863Z,405.87
2023-03-17T09:22:47.234Z,406.74
2023-03-17T09:27:54.469Z,407.79
2023-03-17T09:33:01.856Z,408.71
2023-03-17T09:38:09.183Z,408.37
2023-03-17T09:43:16.553Z,408.55
2023-03-17T09:48:23.914Z,408.77
2023-03-17T09:53:31.301Z,409.17
2023-03-17T09:58:38.707Z,409.67
2023-03-17T10:03:46.101Z,410.69
2023-03-17T10:08:53.515Z,411.18
2023-03-17T10:14:00.913Z,411.20
2023-03-17T10:19:08.319Z,411.91
2023-03-17T10:24:15.676Z,412.09
2023-03-17T10:29:23.049Z,412.03
2023-03-17T10:34:30.439Z,412.92
2023-03-17T10:39:37.868Z,412.87
2023-03-17T10:44:45.157Z,413.61
2023-03-17T10:49:52.809Z,413.65
2023-03-17T10:55:00.203Z,413.48
2023-03-17T11:00:07.568Z,413.90
2023-03-17T11:05:14.985Z,414.13
2023-03-17T11:10:22.400Z,414.66
2023-03-17T11:15:29.816Z,415.33
2023-03-17T11:20:37.424Z,415.36
2023-03-17T11:25:44.744Z,416.28
2023-03-17T11:30:52.127Z,416.83
2023-03-17T11:35:59.631Z,416.93
2023-03-17T11:41:07.060Z,417.77
2023-03-17T11:46:16.661Z,418.14
2023-03-17T11:51:22.778Z,418.07
2023-03-17T11:56:31.618Z,418.99
2023-03-17T12:01:42.721Z,419.56
2023-03-17T12:06:48.576Z,419.97
2023-03-17T12:12:01.657Z,419.82
2023-03-17T12:17:06.977Z,420.34
2023-03-17T12:22:14.328Z,420.54
2023-03-17T12:27:21.889Z,421.17
2023-03-17T12:32:29.396Z,421.30
2023-03-17T12:37:36.676Z,421.91
2023-03-17T12:42:47.051Z,422.68
2023-03-17T12:47:52.037Z,422.98
2023-03-17T12:52:59.446Z,423.15
2023-03-17T12:58:06.877Z,423.77
2023-03-17T13:03:14.604Z,423.73
2023-03-17T13:08:21.945Z,425.05
2023-03-17T13:13:29.611Z,425.66
2023-03-17T13:18:37.017Z,426.50
2023-03-17T13:23:44.363Z,426.73
2023-03-17T13:28:51.746Z,426.17
2023-03-17T13:33:59.170Z,426.77
2023-03-17T13:39:19.312Z,426.58
2023-03-17T13:44:14.662Z,426.13
2023-03-17T13:49:22.067Z,426.15
2023-03-17T13:54:29.457Z,426.06
2023-03-17T13:59:36.850Z,426.36
2023-03-17T14:04:44.064Z,426.03
2023-03-17T14:09:51.469Z,426.46
2023-03-17T14:14:58.759Z,426.05
2023-03-17T14:20:06.086Z,426.10
2023-03-17T14:25:13.428Z,426.50
2023-03-17T14:30:20.912Z,426.49
2023-03-17T14:35:28.405Z,425.96
2023-03-17T14:40:35.817Z,426.23
2023-03-17T14:45:43.267Z,425.94
2023-03-17T14:50:50.716Z,425.51
2023-03-17T14:56:01.551Z,425.55
2023-03-17T15:01:06.461Z,425.50
2023-03-17T15:06:13.890Z,425.74
2023-03-17T15:11:22.395Z,426.60
2023-03-17T15:16:30.032Z,426.18
2023-03-17T15:21:37.328Z,425.95
2023-03-17T15:26:44.933Z,426.18
2023-03-17T15:31:52.613Z,426.31
2023-03-17T15:36:59.872Z,426.07
2023-03-17T15:42:07.232Z,426.27
2023-03-17T15:47:14.594Z,425.93
2023-03-17T15:52:21.925Z,425.37
2023-03-17T15:57:29.183Z,425.23
2023-03-17T16:02:36.579Z,425.04
2023-03-17T16:07:43.892Z,424.69
2023-03-17T16:12:51.290Z,424.52
2023-03-17T16:17:58.679Z,424.33
2023-03-17T16:23:06.013Z,424.85
2023-03-17T16:28:13.290Z,424.38
2023-03-17T16:33:20.755Z,424.55
2023-03-17T16:38:27.937Z,424.70
2023-03-17T16:43:35.249Z,425.24
2023-03-17T16:48:42.560Z,425.14
2023-03-17T16:53:49.837Z,424.71
2023-03-17T17:04:04.888Z,424.26
2023-03-17T17:09:12.451Z,423.75
2023-03-17T17:14:20.174Z,423.18
2023-03-17T17:19:28.326Z,422.78
2023-03-17T17:24:35.525Z,422.52
2023-03-17T17:29:42.833Z,422.34
2023-03-17T17:34:50.215Z,422.01
2023-03-17T17:40:01.601Z,421.75
2023-03-17T17:45:12.440Z,421.28
2023-03-17T17:50:22.309Z,421.28
2023-03-17T17:55:29.910Z,421.70
2023-03-17T18:00:37.733Z,421.04
2023-03-17T18:05:45.312Z,420.97
2023-03-17T18:10:52.778Z,421.39
2023-03-17T18:16:00.452Z,421.07
2023-03-17T18:21:08.811Z,421.17
2023-03-17T18:26:16.592Z,421.39
2023-03-17T18:31:23.984Z,421.33
2023-03-17T18:36:31.350Z,421.38
2023-03-17T18:41:39.130Z,420.89
2023-03-17T18:46:46.857Z,420.60
2023-03-17T18:51:54.600Z,420.16
2023-03-17T18:57:02.297Z,420.48
2023-03-17T19:02:09.855Z,419.97
2023-03-17T19:07:17.261Z,420.13
2023-03-17T19:12:24.848Z,419.86
2023-03-17T19:17:32.636Z,419.65
2023-03-17T19:22:40.338Z,419.40
2023-03-17T19:27:48.155Z,419.32
2023-03-17T19:32:56.741Z,419.52
2023-03-17T19:38:03.673Z,419.15
2023-03-17T19:43:11.131Z,418.92
2023-03-17T19:48:18.513Z,419.37
2023-03-17T19:53:26.988Z,419.12
2023-03-17T19:58:34.319Z,418.23
2023-03-17T20:03:42.110Z,418.08
2023-03-17T20:08:49.824Z,417.53
2023-03-17T20:13:57.529Z,416.99
2023-03-17T20:19:04.837Z,416.69
2023-03-17T20:24:12.186Z,416.83
2023-03-17T20:29:19.605Z,416.37
2023-03-17T20:34:27.162Z,416.26
2023-03-17T20:39:34.894Z,416.11
2023-03-17T20:44:42.800Z,415.05
2023-03-17T20:49:50.483Z,414.63
2023-03-17T20:54:58.166Z,414.68
2023-03-17T21:00:05.596Z,414.70
2023-03-17T21:05:13.171Z,415.94
2023-03-17T21:10:20.789Z,415.31
2023-03-17T21:15:28.229Z,414.23
2023-03-17T21:20:35.529Z,414.53
2023-03-17T21:25:42.842Z,415.11
2023-03-17T21:30:50.148Z,414.71
2023-03-17T21:35:57.644Z,414.04
2023-03-17T21:41:05.030Z,414.38
2023-03-17T21:46:12.230Z,414.76
2023-03-17T21:51:19.544Z,414.52
2023-03-17T21:56:26.890Z,413.91
2023-03-17T22:01:34.181Z,413.35
2023-03-17T22:06:41.240Z,414.37
2023-03-17T22:11:48.536Z,414.10
2023-03-17T22:16:55.764Z,413.90
2023-03-17T22:22:02.989Z,413.71
2023-03-17T22:27:10.230Z,413.94
2023-03-17T22:32:17.485Z,414.03
2023-03-17T22:37:24.774Z,414.34
2023-03-17T22:42:32.035Z,414.03
2023-03-17T22:47:39.255Z,413.10
2023-03-17T22:52:46.598Z,412.43
2023-03-17T22:57:53.865Z,412.73
2023-03-17T23:03:01.140Z,413.02
2023-03-17T23:08:08.379Z,412.35
2023-03-17T23:13:15.663Z,412.00
2023-03-17T23:18:22.854Z,411.49
2023-03-17T23:23:30.145Z,411.14
2023-03-17T23:28:37.553Z,411.43
2023-03-17T23:33:44.705Z,410.76
2023-03-17T23:38:51.893Z,410.43
2023-03-17T23:43:59.113Z,409.54
2023-03-17T23:49:06.369Z,409.79
2023-03-17T23:54:13.627Z,409.50
2023-03-17T23:59:20.938Z,408.56
